Winona Lake, IN

9:52 AM EDT on October 22, 2014 (GMT -0400)
Winona Lake | Change Station
CLOSE
Current Station
Personal Weather Station
Location: Winona Lake, IN
Elevation: 820 ft
Nearby Weather Stations

Elev 820 ft 41.22 °N, 85.82 °W | Updated 18 minutes ago

Clear
Clear
38.5 °F
Feels Like 38 °F
N
2.0
Wind Variable Wind from East
Gusts 2.0 mph

Today
High -- | Low -- °F
--% Chance of Precip.
Yesterday
High -- | Low -- °F
Precip. -- in
8:02 AM 6:51 PM
Waning Crescent, 2% visible
Pressure 30.34 in
Visibility 10.0 miles
Clouds Clear
Windchill 38 °F
Dew Point 38 °F
Humidity 97%
Rainfall 0.00 in
Snow Depth Not available.
UV 1 out of 12
Pollen .80 out of 12
Air Quality Not available.
Flu Activity Sporadic
METAR KASW 221335Z AUTO 00000KT 10SM CLR 03/02 A3034 RMK AO2

More Conditions Fewer Conditions

Pressure 30.34 in
Visibility 10.0 miles
Clouds Clear
Windchill 38 °F
Dew Point 38 °F
Humidity 97%
Rainfall 0.00 in
Snow Depth Not available.
UV 1 out of 12
Pollen .80 out of 12
Air Quality Not available.
Flu Activity Sporadic
METAR KASW 221335Z AUTO 00000KT 10SM CLR 03/02 A3034 RMK AO2

More Conditions Fewer Conditions

10-Day Weather Forecast

Almanac

Astronomy

Oct. 22, 2014 Rise Set
Actual Time 8:02 AM EDT 6:51 PM EDT
Civil Twilight 7:34 AM EDT 7:20 PM EDT
Nautical Twilight 7:02 AM EDT 7:52 PM EDT
Astronomical Twilight 6:30 AM EDT 8:24 PM EDT
Moon 6:42 AM EDT 6:18 PM EDT
Length of Visible Light 11h 45m
Length of Day
10h 49m
Tomorrow will be 2m 35s shorter.
Waning Crescent, 2% of the Moon is Illuminated
Today
Waning Crescent
Oct 23
New
Oct 30
First Quarter
Nov 6
Full
Nov 14
Last Quarter

Today's Extremes

State Highs State Lows

Community

WunderPhotos

Upload Photos

1,763,919 photos uploaded!

Nearby

Snow Depth

Station Depth Elevation
No new snow has been reported.

Earthquake Activity

City Distance Mag. Time & Date
No recent earthquake activity has been reported nearby.
Minimum magnitude displayed is 2.5.

Coastal Water Temperatures

Place Temperature
No Stations Reporting

Nearby Weather Stations